Kanata, Canada
Current Conditions -  °F | °C
As of 7:00 AM on Monday 24 Nov 2014 (Local Time) from CYOW Reporting Station
Light Rain Light Rain  
Wind Chill: 42°   Ceiling: 700
Heat Index: 46°   Visibility: 4mi
Dew Point: 46°   Wind: 8mph
Humidity: 100%   Direction: 130°SE
Pressure: 29.39"   Gusts: 18mph
Location:  45.3°N, 75.91°W
Report Text: CYOW 241200Z 13007G16KT 090V160 4SM -RA BR BKN007 OVC015 08/08 A2939 RMK SF7SC1 /R14/ SLP955
Loading
Personal Weather Stations






























Interactive Weather Map New forecast layout! Learn more

10-Day Weather Forecast

Advertisements
Track Severe Weather on mobile